Time;durP1;ratioP1;P1;durP2;ratioP2;P2;SDS_P1;SDS_P2;PMS_P1;PMS_P2;Temp;Humidity;BMP_temperature;BMP_pressure;BME280_temperature;BME280_humidity;BME280_pressure;Samples;Min_cycle;Max_cycle;Signal;HPM_P1;HPM_P2
2023/01/21 00:01:52;;;;;;;16.97;7.90;;;-2.20;99.90;;;;;;5014564;28;20550;-66
2023/01/21 00:04:18;;;;;;;18.87;8.13;;;-2.20;99.90;;;;;;5009459;28;20038;-66
2023/01/21 00:06:44;;;;;;;17.20;8.30;;;-2.10;99.90;;;;;;5006039;28;20037;-65
2023/01/21 00:09:10;;;;;;;20.53;9.00;;;-2.10;99.90;;;;;;5010199;28;20034;-67
2023/01/21 00:11:36;;;;;;;22.13;8.53;;;-2.00;99.90;;;;;;5003293;28;20403;-68
2023/01/21 00:14:01;;;;;;;20.17;9.00;;;-2.00;99.90;;;;;;5000669;28;20045;-68
2023/01/21 00:16:27;;;;;;;20.63;7.83;;;-2.00;99.90;;;;;;5008570;28;20531;-66
2023/01/21 00:18:54;;;;;;;18.27;7.83;;;-2.00;99.90;;;;;;5001282;28;20065;-65
2023/01/21 00:21:20;;;;;;;17.67;7.23;;;-2.00;99.90;;;;;;5005652;28;20087;-66
2023/01/21 00:23:45;;;;;;;15.40;7.57;;;-1.90;99.90;;;;;;4994853;28;20034;-66
2023/01/21 00:26:11;;;;;;;15.53;8.10;;;-1.90;99.90;;;;;;4987590;28;20484;-65
2023/01/21 00:28:37;;;;;;;20.20;8.30;;;-1.90;99.90;;;;;;4991139;28;20033;-65
2023/01/21 00:31:05;;;;;;;16.20;7.03;;;-2.00;99.90;;;;;;5015160;28;20026;-66
2023/01/21 00:33:31;;;;;;;21.70;9.60;;;-2.00;99.90;;;;;;5014840;28;20033;-66
2023/01/21 00:36:03;;;;;;;17.50;7.43;;;-2.10;99.90;;;;;;5009379;28;20061;-66
2023/01/21 00:38:30;;;;;;;15.47;7.37;;;-2.10;99.90;;;;;;4978087;28;20038;-67
2023/01/21 00:41:03;;;;;;;15.53;7.13;;;-2.10;99.90;;;;;;5008741;28;20492;-66
2023/01/21 00:43:29;;;;;;;17.63;7.30;;;-2.10;99.90;;;;;;5006442;28;20108;-66
2023/01/21 00:45:55;;;;;;;14.13;7.40;;;-2.10;99.90;;;;;;4987185;28;20049;-66
2023/01/21 00:48:20;;;;;;;18.10;7.83;;;-2.10;99.90;;;;;;4992999;28;20065;-66
2023/01/21 00:50:46;;;;;;;14.53;7.50;;;-2.10;99.90;;;;;;5008973;28;20476;-67
2023/01/21 00:53:11;;;;;;;15.93;7.47;;;-2.10;99.90;;;;;;5004221;28;20036;-66
2023/01/21 00:55:37;;;;;;;19.53;7.97;;;-2.20;99.90;;;;;;5006674;28;20077;-67
2023/01/21 00:58:03;;;;;;;17.63;8.00;;;-2.30;99.90;;;;;;5008289;28;20372;-68
2023/01/21 01:00:28;;;;;;;18.23;8.17;;;-2.40;99.90;;;;;;5006841;28;20029;-67
2023/01/21 01:02:54;;;;;;;16.60;7.87;;;-2.50;99.90;;;;;;5008105;28;20029;-65
2023/01/21 01:05:21;;;;;;;22.50;8.63;;;-2.60;99.90;;;;;;5008752;28;20515;-67
2023/01/21 01:07:49;;;;;;;18.23;8.07;;;-2.60;99.90;;;;;;5004247;28;20041;-67
2023/01/21 01:10:15;;;;;;;27.13;8.73;;;-2.60;99.90;;;;;;4998676;28;20033;-67
2023/01/21 01:12:43;;;;;;;20.83;8.17;;;-2.60;99.90;;;;;;5008952;28;20065;-65
2023/01/21 01:15:09;;;;;;;17.90;9.07;;;-2.60;99.90;;;;;;4996738;28;20038;-67
2023/01/21 01:17:35;;;;;;;18.27;8.50;;;-2.60;99.90;;;;;;5008719;28;20095;-64
2023/01/21 01:20:01;;;;;;;20.23;8.80;;;-2.50;99.90;;;;;;5005672;28;20048;-65
2023/01/21 01:22:26;;;;;;;14.60;7.40;;;-2.50;99.90;;;;;;4991427;28;20057;-66
2023/01/21 01:24:52;;;;;;;18.43;7.47;;;-2.40;99.90;;;;;;5021453;28;20030;-64
2023/01/21 01:27:17;;;;;;;17.37;8.10;;;-2.40;99.90;;;;;;5010255;28;20034;-65
2023/01/21 01:29:43;;;;;;;20.60;7.67;;;-2.50;99.90;;;;;;5006120;28;20056;-65
2023/01/21 01:32:09;;;;;;;17.87;6.23;;;-2.50;99.90;;;;;;5009506;28;20036;-67
2023/01/21 01:34:35;;;;;;;16.47;7.83;;;-2.50;99.90;;;;;;5010140;28;20507;-65
2023/01/21 01:37:02;;;;;;;15.17;7.43;;;-2.50;99.90;;;;;;5007949;28;20038;-65
2023/01/21 01:39:28;;;;;;;12.87;6.73;;;-2.50;99.90;;;;;;5018352;28;20022;-65
2023/01/21 01:41:53;;;;;;;21.60;7.70;;;-2.50;99.90;;;;;;5011627;28;20460;-64
2023/01/21 01:44:53;;;;;;;18.37;7.33;;;-2.50;99.90;;;;;;5013152;28;20036;-66
2023/01/21 01:47:20;;;;;;;14.93;7.33;;;-2.40;99.90;;;;;;4994264;28;20111;-65
2023/01/21 01:49:47;;;;;;;16.13;6.07;;;-2.40;99.90;;;;;;5008336;28;20389;-65
2023/01/21 01:52:15;;;;;;;15.80;7.00;;;-2.40;99.90;;;;;;5006091;28;20026;-65
2023/01/21 01:54:46;;;;;;;14.37;6.60;;;-2.40;99.90;;;;;;5015086;28;20080;-66
2023/01/21 01:57:14;;;;;;;14.07;6.97;;;-2.40;99.90;;;;;;5022044;28;20129;-65
2023/01/21 01:59:42;;;;;;;14.20;6.43;;;-2.40;99.90;;;;;;5011147;28;20072;-66
2023/01/21 02:02:10;;;;;;;14.53;6.67;;;-2.40;99.90;;;;;;5013073;28;20415;-66
2023/01/21 02:04:44;;;;;;;12.63;6.43;;;-2.40;99.90;;;;;;5011781;28;20025;-67
2023/01/21 02:07:10;;;;;;;12.52;6.55;;;-2.40;99.90;;;;;;5003474;28;20026;-67
2023/01/21 02:09:36;;;;;;;16.13;5.97;;;-2.40;99.90;;;;;;5004899;28;20030;-65
2023/01/21 02:12:03;;;;;;;15.10;6.73;;;-2.40;99.90;;;;;;5007592;28;20038;-65
2023/01/21 02:14:30;;;;;;;12.77;6.20;;;-2.40;99.90;;;;;;5019563;28;20032;-66
2023/01/21 02:17:10;;;;;;;13.20;6.50;;;-2.40;99.90;;;;;;5004126;28;20380;-66
2023/01/21 02:19:56;;;;;;;17.63;6.17;;;-2.40;99.90;;;;;;5003488;28;20413;-66
2023/01/21 02:23:05;;;;;;;14.37;6.50;;;-2.40;99.90;;;;;;4988512;28;20026;-65
2023/01/21 02:25:34;;;;;;;17.40;6.43;;;-2.40;99.90;;;;;;4989289;28;20030;-66
2023/01/21 02:28:23;;;;;;;11.50;6.43;;;-2.40;99.90;;;;;;4984791;28;20031;-64
2023/01/21 02:31:13;;;;;;;13.40;5.57;;;-2.40;99.90;;;;;;4994739;28;20506;-65
2023/01/21 02:34:06;;;;;;;12.60;6.00;;;-2.40;99.90;;;;;;5003472;28;20531;-66
2023/01/21 02:36:56;;;;;;;13.43;5.73;;;-2.50;99.90;;;;;;5019138;28;20064;-65
2023/01/21 02:39:50;;;;;;;14.87;7.03;;;-2.50;99.90;;;;;;5012775;28;20036;-65
2023/01/21 02:42:30;;;;;;;14.53;5.37;;;-2.50;99.90;;;;;;5019830;28;20032;-65
2023/01/21 02:45:04;;;;;;;15.10;6.23;;;-2.50;99.90;;;;;;4992689;28;20495;-65
2023/01/21 02:47:42;;;;;;;13.77;6.30;;;-2.50;99.90;;;;;;5026330;28;20052;-65
2023/01/21 02:50:45;;;;;;;16.30;6.20;;;-2.50;99.90;;;;;;5006898;28;20037;-66
2023/01/21 02:53:27;;;;;;;12.53;6.23;;;-2.50;99.90;;;;;;4993334;28;20112;-65
2023/01/21 02:55:54;;;;;;;14.20;6.77;;;-2.50;99.90;;;;;;5016298;28;20029;-66
2023/01/21 02:58:26;;;;;;;15.00;6.07;;;-2.50;99.90;;;;;;5020435;28;20032;-65
2023/01/21 03:01:26;;;;;;;16.93;6.23;;;-2.60;99.90;;;;;;5025498;28;20029;-66
2023/01/21 03:04:15;;;;;;;14.70;6.23;;;-2.60;99.90;;;;;;4990008;28;20103;-65
2023/01/21 03:06:47;;;;;;;13.30;5.93;;;-2.60;99.90;;;;;;5011833;28;20029;-67
2023/01/21 03:09:24;;;;;;;14.43;6.00;;;-2.50;99.90;;;;;;5009230;28;20029;-67
2023/01/21 03:12:18;;;;;;;16.37;6.10;;;-2.60;99.90;;;;;;5009490;28;20024;-66
2023/01/21 03:18:25;;;;;;;17.83;5.30;;;-2.70;99.90;;;;;;5014403;28;20479;-65
2023/01/21 03:20:56;;;;;;;15.23;7.00;;;-2.80;99.90;;;;;;5024678;28;20051;-65
2023/01/21 03:23:32;;;;;;;17.97;6.27;;;-2.80;99.90;;;;;;5002701;28;20072;-64
2023/01/21 03:26:00;;;;;;;18.57;6.47;;;-2.90;99.90;;;;;;5001686;28;20036;-67
2023/01/21 03:28:31;;;;;;;12.07;5.70;;;-2.90;99.90;;;;;;5016516;28;20124;-66
2023/01/21 03:31:05;;;;;;;11.83;5.27;;;-2.90;99.90;;;;;;5000407;28;20068;-66
2023/01/21 03:33:34;;;;;;;17.02;5.85;;;-2.80;99.90;;;;;;5000173;28;20037;-66
2023/01/21 03:36:04;;;;;;;16.70;6.20;;;-2.90;99.90;;;;;;5001632;28;20034;-66
2023/01/21 03:38:35;;;;;;;14.80;6.03;;;-2.90;99.90;;;;;;4999044;28;20077;-66
2023/01/21 03:41:18;;;;;;;13.97;6.30;;;-2.90;99.90;;;;;;5019195;28;20041;-65
2023/01/21 03:43:44;;;;;;;14.52;5.82;;;-2.90;99.90;;;;;;5002756;28;20112;-66
2023/01/21 03:46:35;;;;;;;14.80;5.43;;;-3.00;99.90;;;;;;5000046;28;20455;-66
2023/01/21 03:49:13;;;;;;;14.17;6.00;;;-3.00;99.90;;;;;;4980781;28;20043;-66
2023/01/21 03:51:45;;;;;;;14.97;5.97;;;-3.00;99.90;;;;;;5002705;28;20504;-65
2023/01/21 03:54:10;;;;;;;15.43;6.40;;;-3.00;99.90;;;;;;5001674;28;20053;-65
2023/01/21 03:56:36;;;;;;;15.53;6.73;;;-3.10;99.90;;;;;;5001971;28;20065;-65
2023/01/21 03:59:01;;;;;;;12.53;5.20;;;-3.00;99.90;;;;;;5001689;28;20506;-65
2023/01/21 04:01:27;;;;;;;16.20;5.97;;;-3.10;99.90;;;;;;5002561;28;20041;-67
2023/01/21 04:03:53;;;;;;;13.67;5.33;;;-3.00;99.90;;;;;;5012019;28;20553;-66
2023/01/21 04:06:21;;;;;;;8.93;5.03;;;-3.00;99.90;;;;;;5008908;28;20034;-65
2023/01/21 04:08:47;;;;;;;13.27;6.37;;;-3.00;99.90;;;;;;5012170;28;20699;-66
2023/01/21 04:11:13;;;;;;;13.43;6.47;;;-3.00;99.90;;;;;;5006819;28;20052;-65
2023/01/21 04:13:39;;;;;;;9.57;5.10;;;-3.00;99.90;;;;;;5016936;28;20041;-66
2023/01/21 04:16:05;;;;;;;13.47;5.80;;;-3.10;99.90;;;;;;5020959;28;20030;-66
2023/01/21 04:18:31;;;;;;;12.57;5.93;;;-3.10;99.90;;;;;;5012542;28;20496;-66
2023/01/21 04:20:56;;;;;;;10.03;5.40;;;-3.10;99.90;;;;;;5003827;28;20069;-66
2023/01/21 04:23:22;;;;;;;11.33;5.37;;;-3.10;99.90;;;;;;5000209;28;20034;-67
2023/01/21 04:25:48;;;;;;;13.57;5.90;;;-3.10;99.90;;;;;;4985876;28;20033;-65
2023/01/21 04:28:14;;;;;;;13.40;4.83;;;-3.00;99.90;;;;;;4982942;28;20033;-66
2023/01/21 04:30:39;;;;;;;17.57;5.87;;;-3.00;99.90;;;;;;5000002;28;20041;-66
2023/01/21 04:33:05;;;;;;;12.40;5.60;;;-2.90;99.90;;;;;;5000674;28;20384;-66
2023/01/21 04:35:31;;;;;;;15.03;5.67;;;-2.90;99.90;;;;;;5001114;28;20048;-65
2023/01/21 04:37:56;;;;;;;9.60;4.90;;;-2.80;99.90;;;;;;5004138;28;20037;-65
2023/01/21 04:40:22;;;;;;;10.70;5.00;;;-2.90;99.90;;;;;;4999301;28;20025;-66
2023/01/21 04:42:47;;;;;;;12.53;5.57;;;-3.00;99.90;;;;;;5015458;28;20026;-65
2023/01/21 04:45:13;;;;;;;9.93;4.90;;;-2.90;99.90;;;;;;5000885;28;20022;-66
2023/01/21 04:47:43;;;;;;;11.37;5.60;;;-2.90;99.90;;;;;;4990009;28;20089;-67
2023/01/21 04:50:10;;;;;;;15.43;5.83;;;-3.00;99.90;;;;;;4983821;28;20095;-66
2023/01/21 04:52:36;;;;;;;10.17;5.37;;;-3.00;99.90;;;;;;4988014;28;20030;-66
2023/01/21 04:55:02;;;;;;;18.00;5.33;;;-3.00;99.90;;;;;;4991574;28;20029;-66
2023/01/21 04:57:27;;;;;;;14.63;5.67;;;-3.00;99.90;;;;;;5009115;28;20476;-65
2023/01/21 04:59:53;;;;;;;10.10;5.27;;;-3.10;99.90;;;;;;5019921;28;20037;-66
2023/01/21 05:02:19;;;;;;;14.17;5.10;;;-3.00;99.90;;;;;;5020613;28;20026;-67
2023/01/21 05:04:44;;;;;;;15.70;4.57;;;-3.00;99.90;;;;;;5008227;28;20747;-66
2023/01/21 05:07:10;;;;;;;10.03;4.80;;;-3.00;99.90;;;;;;5009066;28;20080;-67
2023/01/21 05:09:36;;;;;;;11.97;5.17;;;-2.90;99.90;;;;;;5012966;28;20488;-66
2023/01/21 05:12:02;;;;;;;12.37;4.73;;;-3.00;99.90;;;;;;5011329;28;20044;-66
2023/01/21 05:14:28;;;;;;;10.60;4.83;;;-2.90;99.90;;;;;;5007920;28;20026;-67
2023/01/21 05:16:53;;;;;;;10.97;4.87;;;-3.00;99.90;;;;;;5006344;28;20030;-67
2023/01/21 05:19:19;;;;;;;15.73;5.40;;;-3.00;99.90;;;;;;5008698;28;20018;-66
2023/01/21 05:21:44;;;;;;;9.90;5.23;;;-3.10;99.90;;;;;;5006685;28;20097;-66
2023/01/21 05:24:10;;;;;;;13.03;5.67;;;-3.10;99.90;;;;;;5007744;28;20610;-65
2023/01/21 05:26:36;;;;;;;12.80;5.67;;;-3.10;99.90;;;;;;5002515;28;20026;-66
2023/01/21 05:29:01;;;;;;;12.47;5.30;;;-3.20;99.90;;;;;;4997605;28;20383;-66
2023/01/21 05:31:27;;;;;;;11.60;5.50;;;-3.20;99.90;;;;;;5000013;28;20034;-66
2023/01/21 05:33:54;;;;;;;11.37;5.23;;;-3.20;99.90;;;;;;4992376;28;20038;-66
2023/01/21 05:36:20;;;;;;;11.07;5.50;;;-3.20;99.90;;;;;;5006459;28;20123;-66
2023/01/21 05:38:46;;;;;;;15.13;6.70;;;-3.20;99.90;;;;;;4998587;28;20050;-66
2023/01/21 05:41:11;;;;;;;13.60;5.23;;;-3.20;99.90;;;;;;5012039;28;20025;-66
2023/01/21 05:43:37;;;;;;;13.50;5.40;;;-3.20;99.90;;;;;;5000037;28;20021;-66
2023/01/21 05:46:02;;;;;;;10.53;5.03;;;-3.20;99.90;;;;;;5000565;28;20369;-65
2023/01/21 05:48:28;;;;;;;13.73;6.37;;;-3.20;99.90;;;;;;4983280;28;20049;-66
2023/01/21 05:50:54;;;;;;;13.77;6.23;;;-3.30;99.90;;;;;;4998819;28;20030;-66
2023/01/21 05:53:19;;;;;;;13.03;6.40;;;-3.30;99.90;;;;;;5010773;28;20076;-66
2023/01/21 05:55:45;;;;;;;13.70;5.83;;;-3.30;99.90;;;;;;5017426;28;20038;-66
2023/01/21 05:58:11;;;;;;;11.60;5.47;;;-3.30;99.90;;;;;;5015811;28;20023;-67
2023/01/21 06:00:37;;;;;;;13.80;6.00;;;-3.30;99.90;;;;;;5008456;28;20030;-66
2023/01/21 06:03:03;;;;;;;13.77;6.93;;;-3.40;99.90;;;;;;5022529;28;20542;-66
2023/01/21 06:05:29;;;;;;;12.93;6.20;;;-3.40;99.90;;;;;;5008313;28;20029;-66
2023/01/21 06:07:55;;;;;;;11.70;5.83;;;-3.40;99.90;;;;;;5013338;28;20029;-66
2023/01/21 06:10:20;;;;;;;15.03;6.70;;;-3.40;99.90;;;;;;5015897;28;20030;-66
2023/01/21 06:12:50;;;;;;;20.60;7.87;;;-3.30;99.90;;;;;;5007644;28;20084;-65
2023/01/21 06:15:16;;;;;;;16.73;7.93;;;-3.30;99.90;;;;;;4986711;28;20434;-66
2023/01/21 06:17:41;;;;;;;17.03;6.17;;;-3.40;99.90;;;;;;5005682;28;20034;-67
2023/01/21 06:20:09;;;;;;;14.50;6.40;;;-3.40;99.90;;;;;;5011843;28;20021;-66
2023/01/21 06:22:34;;;;;;;17.07;6.07;;;-3.40;99.90;;;;;;5000394;28;20034;-66
2023/01/21 06:25:00;;;;;;;13.87;6.17;;;-3.40;99.90;;;;;;5011562;28;22148;-65
2023/01/21 06:27:25;;;;;;;12.97;6.47;;;-3.40;99.90;;;;;;5002330;28;20057;-66
2023/01/21 06:29:51;;;;;;;16.17;7.30;;;-3.50;99.90;;;;;;5001179;28;20087;-67
2023/01/21 06:32:16;;;;;;;18.77;6.80;;;-3.50;99.90;;;;;;5011834;28;20083;-66
2023/01/21 06:34:42;;;;;;;14.73;7.27;;;-3.50;99.90;;;;;;5002875;28;20424;-66
2023/01/21 06:37:08;;;;;;;16.03;7.13;;;-3.60;99.90;;;;;;5003587;28;20022;-66
2023/01/21 06:39:34;;;;;;;17.47;7.20;;;-3.60;99.90;;;;;;5009327;28;20025;-66
2023/01/21 06:42:00;;;;;;;20.43;10.23;;;-3.60;99.90;;;;;;5011283;28;20044;-66
2023/01/21 06:44:25;;;;;;;65.43;26.27;;;-3.70;99.90;;;;;;5002192;28;20828;-66
2023/01/21 06:46:51;;;;;;;35.07;14.37;;;-3.70;99.90;;;;;;5011689;28;20665;-67
2023/01/21 06:49:16;;;;;;;29.17;10.03;;;-3.70;99.90;;;;;;4991035;28;20478;-66
2023/01/21 06:51:42;;;;;;;27.80;10.43;;;-3.70;99.90;;;;;;5001374;28;20096;-66
2023/01/21 06:54:09;;;;;;;28.07;11.83;;;-3.70;99.90;;;;;;5001134;28;20033;-66
2023/01/21 06:56:35;;;;;;;33.53;13.63;;;-3.70;99.90;;;;;;5019347;28;20399;-66
2023/01/21 06:59:01;;;;;;;28.47;10.07;;;-3.70;99.90;;;;;;5015033;28;20020;-67
2023/01/21 07:01:28;;;;;;;25.37;9.77;;;-3.70;99.90;;;;;;5029306;28;20036;-67
2023/01/21 07:03:53;;;;;;;19.10;8.40;;;-3.60;99.90;;;;;;5014219;28;20108;-67
2023/01/21 07:06:20;;;;;;;25.77;8.43;;;-3.60;99.90;;;;;;5024880;28;20112;-67
2023/01/21 07:08:47;;;;;;;16.73;8.83;;;-3.70;99.90;;;;;;5010699;28;20492;-65
2023/01/21 07:11:12;;;;;;;13.50;7.80;;;-3.70;99.90;;;;;;5020847;28;20029;-67
2023/01/21 07:13:38;;;;;;;18.73;8.33;;;-3.70;99.90;;;;;;5008928;28;20045;-66
2023/01/21 07:16:04;;;;;;;19.93;8.30;;;-3.70;99.90;;;;;;5020284;28;20026;-67
2023/01/21 07:18:29;;;;;;;17.77;7.23;;;-3.60;99.90;;;;;;5010037;28;20054;-67
2023/01/21 07:20:56;;;;;;;15.50;7.07;;;-3.60;99.90;;;;;;5006282;28;20026;-66
2023/01/21 07:23:22;;;;;;;16.17;8.17;;;-3.70;99.90;;;;;;5010573;28;20026;-66
2023/01/21 07:25:47;;;;;;;15.00;7.33;;;-3.70;99.90;;;;;;5009314;28;20033;-65
2023/01/21 07:28:13;;;;;;;18.50;8.97;;;-3.70;99.90;;;;;;5003132;28;20034;-65
2023/01/21 07:30:38;;;;;;;19.13;8.23;;;-3.70;99.90;;;;;;5001623;28;20038;-66
2023/01/21 07:33:05;;;;;;;20.43;8.87;;;-3.70;99.90;;;;;;5002333;28;20506;-64
2023/01/21 07:35:31;;;;;;;20.33;8.50;;;-3.80;99.90;;;;;;5002388;28;20033;-65
2023/01/21 07:37:56;;;;;;;22.50;9.23;;;-3.80;99.90;;;;;;4999057;28;20849;-65
2023/01/21 07:40:22;;;;;;;20.63;9.07;;;-3.90;99.90;;;;;;5001075;28;20148;-66
2023/01/21 07:42:55;;;;;;;18.73;7.73;;;-3.80;99.90;;;;;;4999872;28;20116;-65
2023/01/21 07:45:21;;;;;;;18.17;8.37;;;-3.80;99.90;;;;;;4978058;28;20026;-65
2023/01/21 07:47:47;;;;;;;20.17;9.40;;;-3.70;99.90;;;;;;5009626;28;20160;-65
2023/01/21 07:50:13;;;;;;;20.77;8.40;;;-3.70;99.90;;;;;;4977039;28;20046;-65
2023/01/21 07:52:38;;;;;;;18.13;8.57;;;-3.70;99.90;;;;;;5004931;28;20040;-65
2023/01/21 07:55:05;;;;;;;21.37;10.13;;;-3.70;99.90;;;;;;5002120;28;20033;-66
2023/01/21 07:57:30;;;;;;;21.27;10.70;;;-3.70;99.90;;;;;;5001708;28;20305;-65
2023/01/21 07:59:56;;;;;;;19.70;10.03;;;-3.70;99.90;;;;;;4995100;28;20113;-66
2023/01/21 08:02:21;;;;;;;39.03;22.60;;;-3.60;99.90;;;;;;4999201;28;20387;-65
2023/01/21 08:04:47;;;;;;;35.37;17.07;;;-3.70;99.90;;;;;;5019734;28;20446;-67
2023/01/21 08:07:13;;;;;;;23.43;11.13;;;-3.60;99.90;;;;;;5006287;28;20030;-67
2023/01/21 08:09:38;;;;;;;31.30;11.33;;;-3.60;99.90;;;;;;5006720;28;20535;-67
2023/01/21 08:12:05;;;;;;;28.57;11.10;;;-3.60;99.90;;;;;;5015378;28;20030;-67
2023/01/21 08:14:31;;;;;;;19.03;9.50;;;-3.60;99.90;;;;;;5013926;28;20029;-68
2023/01/21 08:16:57;;;;;;;19.87;9.67;;;-3.50;99.90;;;;;;5034730;28;20033;-67
2023/01/21 08:19:22;;;;;;;29.50;10.33;;;-3.40;99.90;;;;;;5015396;28;20057;-67
2023/01/21 08:21:48;;;;;;;25.87;10.40;;;-3.30;99.90;;;;;;5003753;28;20030;-67
2023/01/21 08:24:14;;;;;;;27.23;11.37;;;-3.20;99.90;;;;;;5014059;28;20022;-66
2023/01/21 08:26:39;;;;;;;25.13;10.80;;;-3.10;99.90;;;;;;5017625;22;20053;-65
2023/01/21 08:29:05;;;;;;;27.03;11.37;;;-3.00;99.90;;;;;;4990119;28;20436;-66
2023/01/21 08:31:30;;;;;;;29.30;12.33;;;-2.90;99.90;;;;;;4998216;28;20060;-64
2023/01/21 08:33:57;;;;;;;26.50;11.53;;;-2.90;99.90;;;;;;4988975;28;20030;-65
2023/01/21 08:36:23;;;;;;;23.83;11.57;;;-2.90;99.90;;;;;;4974157;28;20043;-65
2023/01/21 08:38:57;;;;;;;27.77;12.33;;;-2.80;99.90;;;;;;4973564;28;20038;-65
2023/01/21 08:41:23;;;;;;;24.17;9.43;;;-2.80;99.90;;;;;;4981531;28;20031;-65
2023/01/21 08:43:49;;;;;;;19.40;8.47;;;-2.80;99.90;;;;;;4981633;28;20026;-65
2023/01/21 08:46:14;;;;;;;28.57;11.03;;;-2.90;99.90;;;;;;4985768;28;21046;-64
2023/01/21 08:48:40;;;;;;;26.53;10.77;;;-2.80;99.90;;;;;;4958766;28;20046;-64
2023/01/21 08:51:06;;;;;;;23.17;10.03;;;-2.70;99.90;;;;;;4961898;28;20039;-63
2023/01/21 08:53:31;;;;;;;25.90;11.33;;;-2.70;99.90;;;;;;4982967;28;20042;-65
2023/01/21 08:56:02;;;;;;;24.93;10.33;;;-2.60;99.90;;;;;;4975438;28;20066;-65
2023/01/21 08:58:28;;;;;;;25.00;11.47;;;-2.50;99.90;;;;;;4968078;28;20396;-65
2023/01/21 09:00:54;;;;;;;25.87;9.87;;;-2.40;99.90;;;;;;4977670;28;20039;-64
2023/01/21 09:03:20;;;;;;;24.57;10.77;;;-2.30;99.90;;;;;;4979229;28;20034;-64
2023/01/21 09:05:46;;;;;;;26.20;10.57;;;-2.30;99.90;;;;;;4984037;28;20034;-65
2023/01/21 09:08:12;;;;;;;25.13;10.03;;;-2.20;99.90;;;;;;4975131;28;20109;-65
2023/01/21 09:13:22;;;;;;;21.55;9.23;;;-2.10;99.90;;;;;;4968399;28;20066;-65
2023/01/21 09:15:47;;;;;;;28.03;10.53;;;-2.00;99.90;;;;;;4972539;28;20035;-64
2023/01/21 09:18:13;;;;;;;23.47;10.87;;;-2.00;99.90;;;;;;4956738;28;20023;-64
2023/01/21 09:20:39;;;;;;;23.63;10.67;;;-1.90;99.90;;;;;;4972305;28;20061;-64
2023/01/21 09:23:22;;;;;;;23.23;10.00;;;-1.80;99.90;;;;;;4978485;28;20031;-65
2023/01/21 09:26:00;;;;;;;19.27;9.27;;;-1.60;99.90;;;;;;4972158;28;20031;-66
2023/01/21 09:28:26;;;;;;;23.90;11.33;;;-1.50;99.90;;;;;;4958967;28;20042;-64
2023/01/21 09:31:04;;;;;;;25.87;9.93;;;-1.20;99.90;;;;;;4960138;28;20046;-65
2023/01/21 09:33:31;;;;;;;19.37;9.63;;;-0.90;99.90;;;;;;4958404;28;20031;-64
2023/01/21 09:35:59;;;;;;;17.63;8.85;;;-0.50;99.90;;;;;;4958383;28;20031;-65
2023/01/21 09:38:25;;;;;;;18.58;8.68;;;-0.30;99.90;;;;;;4958199;28;20027;-65
2023/01/21 09:40:51;;;;;;;23.00;9.98;;;0.00;99.90;;;;;;4958126;28;20031;-64
2023/01/21 09:43:26;;;;;;;22.65;9.15;;;0.20;99.90;;;;;;4959024;28;20026;-64
2023/01/21 09:45:54;;;;;;;18.23;8.55;;;0.40;99.90;;;;;;4976454;28;20441;-64
2023/01/21 09:48:38;;;;;;;17.77;9.13;;;0.50;99.90;;;;;;4935933;28;20044;-64
2023/01/21 09:51:13;;;;;;;20.58;8.40;;;0.70;99.90;;;;;;4964430;28;20038;-64
2023/01/21 09:53:51;;;;;;;16.60;8.80;;;0.70;99.90;;;;;;4974350;28;20073;-65
2023/01/21 09:56:50;;;;;;;18.33;8.77;;;0.60;99.90;;;;;;4972519;28;20034;-65
2023/01/21 09:59:35;;;;;;;19.38;8.75;;;0.60;99.90;;;;;;4978887;28;20038;-63
2023/01/21 10:02:03;;;;;;;24.30;9.20;;;0.50;99.90;;;;;;4966021;28;20030;-61
2023/01/21 10:04:46;;;;;;;24.02;9.27;;;0.70;99.90;;;;;;4978770;28;20049;-62
2023/01/21 10:07:24;;;;;;;23.88;9.68;;;0.70;99.90;;;;;;4983451;28;20019;-63
2023/01/21 10:10:02;;;;;;;25.63;9.02;;;0.80;99.90;;;;;;4985516;28;20054;-62
2023/01/21 10:12:34;;;;;;;23.92;9.43;;;0.90;99.90;;;;;;4968543;28;20019;-61
2023/01/21 10:15:31;;;;;;;20.73;9.40;;;1.00;99.90;;;;;;4985407;28;20077;-66
2023/01/21 10:18:11;;;;;;;21.00;9.60;;;1.00;99.90;;;;;;4966750;28;20386;-62
2023/01/21 10:20:51;;;;;;;23.02;10.43;;;1.00;99.90;;;;;;4972760;28;20034;-63
2023/01/21 10:23:27;;;;;;;16.83;8.45;;;1.10;99.90;;;;;;4965804;28;20497;-63
2023/01/21 10:25:56;;;;;;;19.30;9.40;;;1.10;99.90;;;;;;4977858;28;20038;-63
2023/01/21 10:28:26;;;;;;;16.98;8.48;;;1.20;99.90;;;;;;4966167;28;20080;-63
2023/01/21 10:30:54;;;;;;;15.25;8.35;;;1.00;99.90;;;;;;4976160;28;20038;-64
2023/01/21 10:33:23;;;;;;;18.92;8.85;;;1.00;99.90;;;;;;4971333;28;20031;-63
2023/01/21 10:35:48;;;;;;;18.33;8.07;;;1.10;99.90;;;;;;4968924;28;20046;-63
2023/01/21 10:38:40;;;;;;;19.83;9.32;;;1.10;99.90;;;;;;4973670;28;20384;-63
2023/01/21 10:41:27;;;;;;;18.92;7.75;;;1.10;99.90;;;;;;4972155;28;20114;-63
2023/01/21 10:43:58;;;;;;;16.10;8.18;;;1.00;99.90;;;;;;4963936;28;20027;-62
2023/01/21 10:46:27;;;;;;;24.70;10.20;;;1.00;99.90;;;;;;4970349;28;20564;-64
2023/01/21 10:49:10;;;;;;;21.23;8.95;;;1.20;99.90;;;;;;4949104;28;20047;-64
2023/01/21 10:51:39;;;;;;;24.40;11.40;;;1.20;99.90;;;;;;4967842;28;20031;-64
2023/01/21 10:54:33;;;;;;;22.95;10.80;;;1.40;99.90;;;;;;4978213;28;20277;-64
2023/01/21 10:57:28;;;;;;;19.92;10.40;;;1.30;99.90;;;;;;4968227;28;20048;-64
2023/01/21 10:59:57;;;;;;;28.00;13.18;;;1.50;99.90;;;;;;4966444;28;20505;-62
2023/01/21 11:02:30;;;;;;;43.17;19.05;;;1.40;99.90;;;;;;4966456;28;20042;-65
2023/01/21 11:05:00;;;;;;;24.45;10.23;;;1.50;99.90;;;;;;4975061;28;20118;-64
2023/01/21 11:07:38;;;;;;;28.80;11.63;;;1.30;99.90;;;;;;4965109;28;20400;-63
2023/01/21 11:10:05;;;;;;;47.70;23.48;;;1.40;99.90;;;;;;4967864;28;20031;-63
2023/01/21 11:12:31;;;;;;;29.60;11.73;;;1.30;99.90;;;;;;4968307;28;20037;-64
2023/01/21 11:15:15;;;;;;;26.73;12.45;;;1.20;99.90;;;;;;4969896;28;20084;-63
2023/01/21 11:17:44;;;;;;;16.08;8.02;;;1.20;99.90;;;;;;4975205;28;20045;-63
2023/01/21 11:20:38;;;;;;;14.15;7.55;;;1.10;99.90;;;;;;4969163;28;20114;-65
2023/01/21 11:23:05;;;;;;;18.85;8.13;;;1.10;99.90;;;;;;4974606;28;20030;-64
2023/01/21 11:25:35;;;;;;;15.65;8.18;;;1.10;99.90;;;;;;4980385;28;20050;-63
2023/01/21 11:28:02;;;;;;;17.50;7.63;;;1.10;99.90;;;;;;4968764;28;20336;-63
2023/01/21 11:30:28;;;;;;;17.95;7.90;;;1.10;99.90;;;;;;4977740;28;20023;-63
2023/01/21 11:33:09;;;;;;;16.23;8.02;;;1.10;99.90;;;;;;4975236;28;20038;-63
2023/01/21 11:35:35;;;;;;;15.50;7.35;;;1.20;99.90;;;;;;4963454;28;20069;-64
2023/01/21 11:38:01;;;;;;;16.42;7.78;;;1.20;99.90;;;;;;4965286;28;20019;-64
2023/01/21 11:40:27;;;;;;;16.98;8.45;;;1.20;99.90;;;;;;4967351;28;20038;-63
2023/01/21 11:42:55;;;;;;;13.20;6.80;;;1.30;99.90;;;;;;4967320;28;20484;-64
2023/01/21 11:45:36;;;;;;;18.95;8.40;;;1.30;99.90;;;;;;4961202;28;20034;-64
2023/01/21 11:48:18;;;;;;;18.17;7.05;;;1.40;99.90;;;;;;4972512;28;20038;-63
2023/01/21 11:50:44;;;;;;;15.25;7.00;;;1.40;99.90;;;;;;4949756;28;20040;-63
2023/01/21 11:53:14;;;;;;;15.80;7.53;;;1.40;99.90;;;;;;4975245;28;20024;-64
2023/01/21 11:56:06;;;;;;;12.95;6.13;;;1.40;99.90;;;;;;4968490;28;20031;-64
2023/01/21 11:58:34;;;;;;;12.40;5.78;;;1.50;99.90;;;;;;4964820;28;20090;-63
2023/01/21 12:01:06;;;;;;;17.77;7.18;;;1.70;99.90;;;;;;4964491;28;20054;-64
2023/01/21 12:03:39;;;;;;;13.00;6.63;;;1.70;99.90;;;;;;4974353;28;20026;-64
2023/01/21 12:06:06;;;;;;;15.68;5.88;;;1.70;99.90;;;;;;4974248;28;20155;-64
2023/01/21 12:08:35;;;;;;;10.68;6.30;;;1.70;99.90;;;;;;4959215;28;20081;-64
2023/01/21 12:11:03;;;;;;;11.88;5.45;;;1.60;99.90;;;;;;4968411;28;20030;-64
2023/01/21 12:13:54;;;;;;;10.68;6.18;;;1.70;99.90;;;;;;4958188;28;20601;-63
2023/01/21 12:16:35;;;;;;;11.40;5.60;;;1.60;99.90;;;;;;4962653;28;20196;-63
2023/01/21 12:19:27;;;;;;;10.30;5.80;;;1.70;99.90;;;;;;4970211;28;20023;-63
2023/01/21 12:22:43;;;;;;;10.50;5.35;;;1.70;99.90;;;;;;4968546;28;20030;-64
2023/01/21 12:25:40;;;;;;;11.57;5.78;;;1.90;99.90;;;;;;4955069;28;20198;-63
2023/01/21 12:28:32;;;;;;;16.15;6.13;;;1.80;99.90;;;;;;4975901;28;20058;-63
2023/01/21 12:31:28;;;;;;;10.57;5.50;;;1.70;99.90;;;;;;4958494;28;20512;-63
2023/01/21 12:34:00;;;;;;;11.45;5.93;;;1.80;99.90;;;;;;4962582;28;20042;-63
2023/01/21 12:36:51;;;;;;;8.55;4.93;;;1.80;99.90;;;;;;4972298;28;20035;-63
2023/01/21 12:39:24;;;;;;;10.35;5.35;;;1.90;99.90;;;;;;4957965;28;20493;-61
2023/01/21 12:42:01;;;;;;;10.80;5.43;;;2.00;99.90;;;;;;4980939;28;20035;-62
2023/01/21 12:44:45;;;;;;;10.68;6.18;;;2.20;99.90;;;;;;4963014;28;20547;-63
2023/01/21 12:47:37;;;;;;;;;;;2.30;99.90;;;;;;4964310;28;20750;-63
2023/01/21 12:50:21;;;;;;;10.18;5.22;;;2.30;99.90;;;;;;4919055;28;19949;-63
2023/01/21 12:53:02;;;;;;;12.03;5.03;;;2.30;99.90;;;;;;4967569;28;20038;-63
2023/01/21 12:55:59;;;;;;;10.15;4.80;;;2.40;99.90;;;;;;4960363;28;20054;-63
2023/01/21 12:58:30;;;;;;;8.50;4.40;;;2.30;99.90;;;;;;4957460;28;20035;-62
2023/01/21 13:00:59;;;;;;;10.80;5.45;;;2.20;99.90;;;;;;4966771;28;20038;-64
2023/01/21 13:03:46;;;;;;;10.90;5.07;;;2.10;99.90;;;;;;4978632;28;20042;-62